sensor_id;sensor_type;location;lat;lon;timestamp;P1;durP1;ratioP1;P2;durP2;ratioP2
36441;SDS011;73131;50.820;16.274;2024-03-02T00:02:23;23.58;;;14.25;;
36441;SDS011;73131;50.820;16.274;2024-03-02T00:05:24;25.45;;;13.65;;
36441;SDS011;73131;50.820;16.274;2024-03-02T00:08:28;22.20;;;13.63;;
36441;SDS011;73131;50.820;16.274;2024-03-02T00:11:30;25.77;;;13.85;;
36441;SDS011;73131;50.820;16.274;2024-03-02T00:14:34;21.42;;;13.75;;
36441;SDS011;73131;50.820;16.274;2024-03-02T00:17:38;22.20;;;13.73;;
36441;SDS011;73131;50.820;16.274;2024-03-02T00:20:41;26.17;;;14.93;;
36441;SDS011;73131;50.820;16.274;2024-03-02T00:23:43;27.45;;;14.65;;
36441;SDS011;73131;50.820;16.274;2024-03-02T00:26:44;30.90;;;14.25;;
36441;SDS011;73131;50.820;16.274;2024-03-02T00:29:48;33.30;;;17.17;;
36441;SDS011;73131;50.820;16.274;2024-03-02T00:32:49;35.50;;;17.95;;
36441;SDS011;73131;50.820;16.274;2024-03-02T00:35:53;38.22;;;20.35;;
36441;SDS011;73131;50.820;16.274;2024-03-02T00:38:54;35.42;;;18.63;;
36441;SDS011;73131;50.820;16.274;2024-03-02T00:41:56;41.13;;;19.73;;
36441;SDS011;73131;50.820;16.274;2024-03-02T00:44:57;37.50;;;20.30;;
36441;SDS011;73131;50.820;16.274;2024-03-02T00:47:58;33.22;;;18.10;;
36441;SDS011;73131;50.820;16.274;2024-03-02T00:50:59;33.47;;;17.95;;
36441;SDS011;73131;50.820;16.274;2024-03-02T00:54:01;33.00;;;18.15;;
36441;SDS011;73131;50.820;16.274;2024-03-02T00:57:04;35.83;;;19.02;;
36441;SDS011;73131;50.820;16.274;2024-03-02T01:00:06;26.95;;;15.82;;
36441;SDS011;73131;50.820;16.274;2024-03-02T01:03:12;35.88;;;17.55;;
36441;SDS011;73131;50.820;16.274;2024-03-02T01:06:16;36.28;;;19.90;;
36441;SDS011;73131;50.820;16.274;2024-03-02T01:09:17;32.40;;;17.77;;
36441;SDS011;73131;50.820;16.274;2024-03-02T01:12:21;31.60;;;17.90;;
36441;SDS011;73131;50.820;16.274;2024-03-02T01:15:24;33.05;;;17.23;;
36441;SDS011;73131;50.820;16.274;2024-03-02T01:18:25;34.40;;;17.83;;
36441;SDS011;73131;50.820;16.274;2024-03-02T01:21:26;35.65;;;17.17;;
36441;SDS011;73131;50.820;16.274;2024-03-02T01:24:30;34.15;;;18.63;;
36441;SDS011;73131;50.820;16.274;2024-03-02T01:27:33;33.92;;;17.63;;
36441;SDS011;73131;50.820;16.274;2024-03-02T01:30:34;33.80;;;17.27;;
36441;SDS011;73131;50.820;16.274;2024-03-02T01:33:35;35.80;;;17.48;;
36441;SDS011;73131;50.820;16.274;2024-03-02T01:36:38;28.20;;;15.45;;
36441;SDS011;73131;50.820;16.274;2024-03-02T01:39:39;33.63;;;17.67;;
36441;SDS011;73131;50.820;16.274;2024-03-02T01:42:40;34.17;;;17.33;;
36441;SDS011;73131;50.820;16.274;2024-03-02T01:45:41;31.08;;;16.70;;
36441;SDS011;73131;50.820;16.274;2024-03-02T01:48:42;31.98;;;16.83;;
36441;SDS011;73131;50.820;16.274;2024-03-02T01:51:46;29.70;;;16.80;;
36441;SDS011;73131;50.820;16.274;2024-03-02T01:54:49;29.25;;;15.77;;
36441;SDS011;73131;50.820;16.274;2024-03-02T01:57:55;29.33;;;16.15;;
36441;SDS011;73131;50.820;16.274;2024-03-02T02:00:56;27.05;;;15.23;;
36441;SDS011;73131;50.820;16.274;2024-03-02T02:03:57;34.47;;;15.48;;
36441;SDS011;73131;50.820;16.274;2024-03-02T02:06:58;33.13;;;17.30;;
36441;SDS011;73131;50.820;16.274;2024-03-02T02:10:00;30.33;;;15.38;;
36441;SDS011;73131;50.820;16.274;2024-03-02T02:13:06;31.85;;;14.93;;
36441;SDS011;73131;50.820;16.274;2024-03-02T02:16:08;31.08;;;15.85;;
36441;SDS011;73131;50.820;16.274;2024-03-02T02:19:10;31.30;;;16.30;;
36441;SDS011;73131;50.820;16.274;2024-03-02T02:22:11;25.40;;;15.13;;
36441;SDS011;73131;50.820;16.274;2024-03-02T02:25:17;28.30;;;14.57;;
36441;SDS011;73131;50.820;16.274;2024-03-02T02:28:20;29.23;;;15.13;;
36441;SDS011;73131;50.820;16.274;2024-03-02T02:31:23;26.92;;;14.50;;
36441;SDS011;73131;50.820;16.274;2024-03-02T02:34:27;28.98;;;15.02;;
36441;SDS011;73131;50.820;16.274;2024-03-02T02:37:28;26.95;;;15.75;;
36441;SDS011;73131;50.820;16.274;2024-03-02T02:40:32;30.05;;;15.95;;
36441;SDS011;73131;50.820;16.274;2024-03-02T02:43:36;28.63;;;14.60;;
36441;SDS011;73131;50.820;16.274;2024-03-02T02:46:36;27.58;;;15.57;;
36441;SDS011;73131;50.820;16.274;2024-03-02T02:49:40;29.52;;;15.85;;
36441;SDS011;73131;50.820;16.274;2024-03-02T02:52:43;33.90;;;17.60;;
36441;SDS011;73131;50.820;16.274;2024-03-02T02:55:44;28.15;;;16.30;;
36441;SDS011;73131;50.820;16.274;2024-03-02T02:58:45;33.08;;;17.30;;
36441;SDS011;73131;50.820;16.274;2024-03-02T03:01:46;28.90;;;15.65;;
36441;SDS011;73131;50.820;16.274;2024-03-02T03:04:47;29.13;;;15.77;;
36441;SDS011;73131;50.820;16.274;2024-03-02T03:07:48;29.02;;;16.77;;
36441;SDS011;73131;50.820;16.274;2024-03-02T03:10:50;29.20;;;14.45;;
36441;SDS011;73131;50.820;16.274;2024-03-02T03:13:52;31.30;;;15.20;;
36441;SDS011;73131;50.820;16.274;2024-03-02T03:16:54;32.30;;;16.70;;
36441;SDS011;73131;50.820;16.274;2024-03-02T03:19:58;31.40;;;15.98;;
36441;SDS011;73131;50.820;16.274;2024-03-02T03:22:59;28.70;;;14.35;;
36441;SDS011;73131;50.820;16.274;2024-03-02T03:26:00;30.83;;;14.38;;
36441;SDS011;73131;50.820;16.274;2024-03-02T03:29:02;29.35;;;14.60;;
36441;SDS011;73131;50.820;16.274;2024-03-02T03:32:04;29.10;;;16.10;;
36441;SDS011;73131;50.820;16.274;2024-03-02T03:35:07;28.50;;;14.02;;
36441;SDS011;73131;50.820;16.274;2024-03-02T03:38:11;29.55;;;15.70;;
36441;SDS011;73131;50.820;16.274;2024-03-02T03:41:16;28.23;;;15.40;;
36441;SDS011;73131;50.820;16.274;2024-03-02T03:44:17;31.63;;;15.23;;
36441;SDS011;73131;50.820;16.274;2024-03-02T03:47:20;26.60;;;14.20;;
36441;SDS011;73131;50.820;16.274;2024-03-02T03:50:26;28.25;;;15.00;;
36441;SDS011;73131;50.820;16.274;2024-03-02T03:53:27;25.02;;;12.75;;
36441;SDS011;73131;50.820;16.274;2024-03-02T03:56:28;25.13;;;13.57;;
36441;SDS011;73131;50.820;16.274;2024-03-02T03:59:29;25.70;;;14.25;;
36441;SDS011;73131;50.820;16.274;2024-03-02T04:02:30;25.05;;;14.32;;
36441;SDS011;73131;50.820;16.274;2024-03-02T04:05:33;24.73;;;13.88;;
36441;SDS011;73131;50.820;16.274;2024-03-02T04:08:34;24.98;;;13.05;;
36441;SDS011;73131;50.820;16.274;2024-03-02T04:11:35;25.80;;;13.85;;
36441;SDS011;73131;50.820;16.274;2024-03-02T04:14:37;27.05;;;14.73;;
36441;SDS011;73131;50.820;16.274;2024-03-02T04:17:40;25.77;;;13.77;;
36441;SDS011;73131;50.820;16.274;2024-03-02T04:20:41;27.92;;;14.02;;
36441;SDS011;73131;50.820;16.274;2024-03-02T04:23:44;25.92;;;13.38;;
36441;SDS011;73131;50.820;16.274;2024-03-02T04:26:46;22.27;;;13.15;;
36441;SDS011;73131;50.820;16.274;2024-03-02T04:29:46;31.58;;;14.68;;
36441;SDS011;73131;50.820;16.274;2024-03-02T04:32:48;26.30;;;12.32;;
36441;SDS011;73131;50.820;16.274;2024-03-02T04:35:49;21.92;;;13.07;;
36441;SDS011;73131;50.820;16.274;2024-03-02T04:38:52;27.27;;;13.77;;
36441;SDS011;73131;50.820;16.274;2024-03-02T04:41:53;26.00;;;13.93;;
36441;SDS011;73131;50.820;16.274;2024-03-02T04:44:57;24.23;;;13.75;;
36441;SDS011;73131;50.820;16.274;2024-03-02T04:47:58;25.05;;;14.50;;
36441;SDS011;73131;50.820;16.274;2024-03-02T04:51:04;22.27;;;12.50;;
36441;SDS011;73131;50.820;16.274;2024-03-02T04:54:05;23.70;;;13.18;;
36441;SDS011;73131;50.820;16.274;2024-03-02T04:57:06;23.55;;;14.23;;
36441;SDS011;73131;50.820;16.274;2024-03-02T05:00:08;27.20;;;13.70;;
36441;SDS011;73131;50.820;16.274;2024-03-02T05:03:12;31.27;;;15.15;;
36441;SDS011;73131;50.820;16.274;2024-03-02T05:06:16;24.48;;;14.70;;
36441;SDS011;73131;50.820;16.274;2024-03-02T05:09:17;28.92;;;14.98;;
36441;SDS011;73131;50.820;16.274;2024-03-02T05:12:18;29.05;;;13.00;;
36441;SDS011;73131;50.820;16.274;2024-03-02T05:15:37;28.42;;;16.45;;
36441;SDS011;73131;50.820;16.274;2024-03-02T05:18:41;25.55;;;14.10;;
36441;SDS011;73131;50.820;16.274;2024-03-02T05:21:44;27.05;;;13.82;;
36441;SDS011;73131;50.820;16.274;2024-03-02T05:24:45;23.80;;;14.02;;
36441;SDS011;73131;50.820;16.274;2024-03-02T05:27:48;30.10;;;15.05;;
36441;SDS011;73131;50.820;16.274;2024-03-02T05:30:52;27.63;;;14.68;;
36441;SDS011;73131;50.820;16.274;2024-03-02T05:33:53;26.88;;;14.85;;
36441;SDS011;73131;50.820;16.274;2024-03-02T05:36:56;28.20;;;16.15;;
36441;SDS011;73131;50.820;16.274;2024-03-02T05:39:58;28.10;;;14.57;;
36441;SDS011;73131;50.820;16.274;2024-03-02T05:42:59;28.55;;;14.57;;
36441;SDS011;73131;50.820;16.274;2024-03-02T05:46:03;28.27;;;15.68;;
36441;SDS011;73131;50.820;16.274;2024-03-02T05:49:04;26.38;;;15.00;;
36441;SDS011;73131;50.820;16.274;2024-03-02T05:52:05;25.50;;;15.30;;
36441;SDS011;73131;50.820;16.274;2024-03-02T05:55:07;27.85;;;15.43;;
36441;SDS011;73131;50.820;16.274;2024-03-02T05:58:10;24.90;;;14.52;;
36441;SDS011;73131;50.820;16.274;2024-03-02T06:01:18;27.92;;;14.80;;
36441;SDS011;73131;50.820;16.274;2024-03-02T06:04:28;29.83;;;15.63;;
36441;SDS011;73131;50.820;16.274;2024-03-02T06:07:29;27.65;;;15.80;;
36441;SDS011;73131;50.820;16.274;2024-03-02T06:10:32;30.40;;;15.85;;
36441;SDS011;73131;50.820;16.274;2024-03-02T06:13:33;34.13;;;16.73;;
36441;SDS011;73131;50.820;16.274;2024-03-02T06:16:36;26.75;;;14.50;;
36441;SDS011;73131;50.820;16.274;2024-03-02T06:19:38;30.73;;;15.73;;
36441;SDS011;73131;50.820;16.274;2024-03-02T06:22:39;25.63;;;15.35;;
36441;SDS011;73131;50.820;16.274;2024-03-02T06:25:43;27.25;;;14.70;;
36441;SDS011;73131;50.820;16.274;2024-03-02T06:28:44;25.48;;;14.80;;
36441;SDS011;73131;50.820;16.274;2024-03-02T06:31:45;24.80;;;14.05;;
36441;SDS011;73131;50.820;16.274;2024-03-02T06:34:46;23.23;;;14.48;;
36441;SDS011;73131;50.820;16.274;2024-03-02T06:37:50;26.65;;;14.40;;
36441;SDS011;73131;50.820;16.274;2024-03-02T06:40:54;24.95;;;14.18;;
36441;SDS011;73131;50.820;16.274;2024-03-02T06:44:00;23.92;;;14.57;;
36441;SDS011;73131;50.820;16.274;2024-03-02T06:47:03;25.77;;;14.00;;
36441;SDS011;73131;50.820;16.274;2024-03-02T06:50:08;25.73;;;14.60;;
36441;SDS011;73131;50.820;16.274;2024-03-02T06:53:14;25.70;;;14.98;;
36441;SDS011;73131;50.820;16.274;2024-03-02T06:56:18;26.38;;;14.85;;
36441;SDS011;73131;50.820;16.274;2024-03-02T06:59:24;25.05;;;13.70;;
36441;SDS011;73131;50.820;16.274;2024-03-02T07:02:25;27.65;;;13.98;;
36441;SDS011;73131;50.820;16.274;2024-03-02T07:05:27;22.98;;;13.65;;
36441;SDS011;73131;50.820;16.274;2024-03-02T07:08:30;27.85;;;13.93;;
36441;SDS011;73131;50.820;16.274;2024-03-02T07:11:31;29.35;;;14.40;;
36441;SDS011;73131;50.820;16.274;2024-03-02T07:14:32;23.70;;;13.05;;
36441;SDS011;73131;50.820;16.274;2024-03-02T07:17:59;25.80;;;14.02;;
36441;SDS011;73131;50.820;16.274;2024-03-02T07:21:03;27.27;;;14.93;;
36441;SDS011;73131;50.820;16.274;2024-03-02T07:24:04;24.75;;;13.63;;
36441;SDS011;73131;50.820;16.274;2024-03-02T07:27:10;26.80;;;14.57;;
36441;SDS011;73131;50.820;16.274;2024-03-02T07:30:13;26.85;;;14.10;;
36441;SDS011;73131;50.820;16.274;2024-03-02T07:33:17;23.20;;;14.00;;
36441;SDS011;73131;50.820;16.274;2024-03-02T07:36:18;24.48;;;13.23;;
36441;SDS011;73131;50.820;16.274;2024-03-02T07:39:22;22.92;;;12.20;;
36441;SDS011;73131;50.820;16.274;2024-03-02T07:42:24;23.85;;;13.52;;
36441;SDS011;73131;50.820;16.274;2024-03-02T07:45:27;24.35;;;12.25;;
36441;SDS011;73131;50.820;16.274;2024-03-02T07:48:28;25.15;;;12.32;;
36441;SDS011;73131;50.820;16.274;2024-03-02T07:51:30;24.52;;;13.15;;
36441;SDS011;73131;50.820;16.274;2024-03-02T07:54:31;21.75;;;12.27;;
36441;SDS011;73131;50.820;16.274;2024-03-02T07:57:35;27.60;;;13.43;;
36441;SDS011;73131;50.820;16.274;2024-03-02T08:00:39;24.63;;;13.10;;
36441;SDS011;73131;50.820;16.274;2024-03-02T08:03:40;24.45;;;13.20;;
36441;SDS011;73131;50.820;16.274;2024-03-02T08:06:48;26.50;;;14.32;;
36441;SDS011;73131;50.820;16.274;2024-03-02T08:09:51;22.08;;;13.23;;
36441;SDS011;73131;50.820;16.274;2024-03-02T08:12:52;21.80;;;12.65;;
36441;SDS011;73131;50.820;16.274;2024-03-02T08:15:53;25.38;;;13.25;;
36441;SDS011;73131;50.820;16.274;2024-03-02T08:19:00;23.95;;;13.60;;
36441;SDS011;73131;50.820;16.274;2024-03-02T08:22:01;20.80;;;12.48;;
36441;SDS011;73131;50.820;16.274;2024-03-02T08:25:02;20.88;;;12.32;;
36441;SDS011;73131;50.820;16.274;2024-03-02T08:28:04;22.73;;;13.75;;
36441;SDS011;73131;50.820;16.274;2024-03-02T08:31:05;21.58;;;12.68;;
36441;SDS011;73131;50.820;16.274;2024-03-02T08:37:12;23.38;;;13.27;;
36441;SDS011;73131;50.820;16.274;2024-03-02T08:40:18;24.13;;;12.20;;
36441;SDS011;73131;50.820;16.274;2024-03-02T08:43:19;23.92;;;13.18;;
36441;SDS011;73131;50.820;16.274;2024-03-02T08:46:20;22.58;;;11.52;;
36441;SDS011;73131;50.820;16.274;2024-03-02T08:49:23;21.58;;;11.73;;
36441;SDS011;73131;50.820;16.274;2024-03-02T08:52:25;19.75;;;11.02;;
36441;SDS011;73131;50.820;16.274;2024-03-02T08:55:28;20.98;;;12.30;;
36441;SDS011;73131;50.820;16.274;2024-03-02T08:58:29;18.80;;;11.32;;
36441;SDS011;73131;50.820;16.274;2024-03-02T09:01:30;19.10;;;10.57;;
36441;SDS011;73131;50.820;16.274;2024-03-02T09:04:31;19.10;;;11.50;;
36441;SDS011;73131;50.820;16.274;2024-03-02T09:07:34;19.00;;;11.18;;
36441;SDS011;73131;50.820;16.274;2024-03-02T09:10:39;16.48;;;10.88;;
36441;SDS011;73131;50.820;16.274;2024-03-02T09:13:42;19.77;;;11.55;;
36441;SDS011;73131;50.820;16.274;2024-03-02T09:16:45;20.70;;;11.95;;
36441;SDS011;73131;50.820;16.274;2024-03-02T09:19:49;20.90;;;11.85;;
36441;SDS011;73131;50.820;16.274;2024-03-02T09:22:53;20.15;;;11.63;;
36441;SDS011;73131;50.820;16.274;2024-03-02T09:25:54;22.40;;;12.13;;
36441;SDS011;73131;50.820;16.274;2024-03-02T09:28:55;18.15;;;10.93;;
36441;SDS011;73131;50.820;16.274;2024-03-02T09:31:56;18.13;;;10.63;;
36441;SDS011;73131;50.820;16.274;2024-03-02T09:34:57;18.90;;;11.50;;
36441;SDS011;73131;50.820;16.274;2024-03-02T09:37:58;19.98;;;10.70;;
36441;SDS011;73131;50.820;16.274;2024-03-02T09:41:00;21.05;;;11.40;;
36441;SDS011;73131;50.820;16.274;2024-03-02T09:44:02;16.95;;;10.40;;
36441;SDS011;73131;50.820;16.274;2024-03-02T09:47:07;21.55;;;11.50;;
36441;SDS011;73131;50.820;16.274;2024-03-02T09:50:08;20.67;;;10.55;;
36441;SDS011;73131;50.820;16.274;2024-03-02T09:53:12;16.27;;;10.40;;
36441;SDS011;73131;50.820;16.274;2024-03-02T09:56:14;16.08;;;9.60;;
36441;SDS011;73131;50.820;16.274;2024-03-02T09:59:21;16.90;;;10.73;;
36441;SDS011;73131;50.820;16.274;2024-03-02T10:02:24;20.83;;;11.35;;
36441;SDS011;73131;50.820;16.274;2024-03-02T10:05:28;15.75;;;10.13;;
36441;SDS011;73131;50.820;16.274;2024-03-02T10:08:40;18.02;;;10.13;;
36441;SDS011;73131;50.820;16.274;2024-03-02T10:11:44;16.50;;;10.20;;
36441;SDS011;73131;50.820;16.274;2024-03-02T10:14:47;19.77;;;12.18;;
36441;SDS011;73131;50.820;16.274;2024-03-02T10:17:51;20.27;;;11.75;;
36441;SDS011;73131;50.820;16.274;2024-03-02T10:20:51;16.98;;;11.00;;
36441;SDS011;73131;50.820;16.274;2024-03-02T10:23:53;21.50;;;11.27;;
36441;SDS011;73131;50.820;16.274;2024-03-02T10:27:16;16.70;;;11.30;;
36441;SDS011;73131;50.820;16.274;2024-03-02T10:30:27;21.45;;;11.45;;
36441;SDS011;73131;50.820;16.274;2024-03-02T10:33:28;17.20;;;10.60;;
36441;SDS011;73131;50.820;16.274;2024-03-02T10:36:29;18.65;;;12.13;;
36441;SDS011;73131;50.820;16.274;2024-03-02T10:39:34;19.90;;;10.55;;
36441;SDS011;73131;50.820;16.274;2024-03-02T10:42:40;17.35;;;11.00;;
36441;SDS011;73131;50.820;16.274;2024-03-02T10:45:42;18.10;;;11.85;;
36441;SDS011;73131;50.820;16.274;2024-03-02T10:48:44;20.58;;;12.32;;
36441;SDS011;73131;50.820;16.274;2024-03-02T10:51:47;19.65;;;11.88;;
36441;SDS011;73131;50.820;16.274;2024-03-02T10:54:48;19.75;;;12.68;;
36441;SDS011;73131;50.820;16.274;2024-03-02T10:57:53;22.38;;;12.52;;
36441;SDS011;73131;50.820;16.274;2024-03-02T11:01:00;24.23;;;13.05;;
36441;SDS011;73131;50.820;16.274;2024-03-02T11:04:03;22.83;;;12.38;;
36441;SDS011;73131;50.820;16.274;2024-03-02T11:07:08;23.25;;;12.13;;
36441;SDS011;73131;50.820;16.274;2024-03-02T11:10:10;21.02;;;12.32;;
36441;SDS011;73131;50.820;16.274;2024-03-02T11:13:12;19.17;;;10.93;;
36441;SDS011;73131;50.820;16.274;2024-03-02T11:16:34;23.30;;;12.68;;
36441;SDS011;73131;50.820;16.274;2024-03-02T11:19:39;19.17;;;11.43;;
36441;SDS011;73131;50.820;16.274;2024-03-02T11:22:41;20.05;;;12.20;;
36441;SDS011;73131;50.820;16.274;2024-03-02T11:25:44;18.67;;;10.82;;
36441;SDS011;73131;50.820;16.274;2024-03-02T11:28:47;21.27;;;11.98;;
36441;SDS011;73131;50.820;16.274;2024-03-02T11:31:58;21.33;;;11.15;;
36441;SDS011;73131;50.820;16.274;2024-03-02T11:35:00;21.65;;;10.88;;
36441;SDS011;73131;50.820;16.274;2024-03-02T11:38:03;15.35;;;10.25;;
36441;SDS011;73131;50.820;16.274;2024-03-02T11:41:15;18.02;;;10.73;;
36441;SDS011;73131;50.820;16.274;2024-03-02T11:44:32;15.30;;;9.93;;
36441;SDS011;73131;50.820;16.274;2024-03-02T11:47:39;15.15;;;9.70;;
36441;SDS011;73131;50.820;16.274;2024-03-02T11:50:49;21.20;;;11.02;;
36441;SDS011;73131;50.820;16.274;2024-03-02T11:53:53;21.35;;;11.68;;
36441;SDS011;73131;50.820;16.274;2024-03-02T11:56:56;20.58;;;10.35;;
36441;SDS011;73131;50.820;16.274;2024-03-02T12:00:20;17.70;;;10.52;;
36441;SDS011;73131;50.820;16.274;2024-03-02T12:03:24;18.50;;;10.27;;
36441;SDS011;73131;50.820;16.274;2024-03-02T12:06:26;16.50;;;11.13;;
36441;SDS011;73131;50.820;16.274;2024-03-02T12:09:32;18.83;;;10.82;;
36441;SDS011;73131;50.820;16.274;2024-03-02T12:12:32;18.20;;;9.98;;
36441;SDS011;73131;50.820;16.274;2024-03-02T12:15:39;15.00;;;9.45;;
36441;SDS011;73131;50.820;16.274;2024-03-02T12:18:41;15.80;;;11.32;;
36441;SDS011;73131;50.820;16.274;2024-03-02T12:21:46;14.80;;;9.38;;
36441;SDS011;73131;50.820;16.274;2024-03-02T12:24:47;16.10;;;9.77;;
36441;SDS011;73131;50.820;16.274;2024-03-02T12:27:54;14.88;;;9.20;;
36441;SDS011;73131;50.820;16.274;2024-03-02T12:30:59;15.88;;;9.50;;
36441;SDS011;73131;50.820;16.274;2024-03-02T12:34:03;21.70;;;12.00;;
36441;SDS011;73131;50.820;16.274;2024-03-02T12:37:04;20.05;;;11.93;;
36441;SDS011;73131;50.820;16.274;2024-03-02T12:40:06;18.02;;;10.68;;
36441;SDS011;73131;50.820;16.274;2024-03-02T12:43:09;16.90;;;8.70;;
36441;SDS011;73131;50.820;16.274;2024-03-02T12:46:11;17.05;;;10.07;;
36441;SDS011;73131;50.820;16.274;2024-03-02T12:49:13;14.35;;;9.40;;
36441;SDS011;73131;50.820;16.274;2024-03-02T12:52:18;16.20;;;9.80;;
36441;SDS011;73131;50.820;16.274;2024-03-02T12:55:19;25.13;;;12.95;;
36441;SDS011;73131;50.820;16.274;2024-03-02T12:58:24;23.77;;;12.45;;
36441;SDS011;73131;50.820;16.274;2024-03-02T13:01:32;19.40;;;11.40;;
36441;SDS011;73131;50.820;16.274;2024-03-02T13:04:37;19.00;;;11.52;;
36441;SDS011;73131;50.820;16.274;2024-03-02T13:07:38;16.40;;;10.90;;
36441;SDS011;73131;50.820;16.274;2024-03-02T13:10:41;17.33;;;9.82;;
36441;SDS011;73131;50.820;16.274;2024-03-02T13:13:42;16.60;;;9.82;;
36441;SDS011;73131;50.820;16.274;2024-03-02T13:16:44;15.48;;;9.63;;
36441;SDS011;73131;50.820;16.274;2024-03-02T13:19:59;18.02;;;10.05;;
36441;SDS011;73131;50.820;16.274;2024-03-02T13:23:01;17.05;;;9.77;;
36441;SDS011;73131;50.820;16.274;2024-03-02T13:26:04;18.30;;;10.35;;
36441;SDS011;73131;50.820;16.274;2024-03-02T13:29:08;14.60;;;9.23;;
36441;SDS011;73131;50.820;16.274;2024-03-02T13:32:09;16.50;;;10.05;;
36441;SDS011;73131;50.820;16.274;2024-03-02T13:35:10;15.40;;;9.60;;
36441;SDS011;73131;50.820;16.274;2024-03-02T13:38:11;18.05;;;9.73;;
36441;SDS011;73131;50.820;16.274;2024-03-02T13:41:12;18.17;;;10.63;;
36441;SDS011;73131;50.820;16.274;2024-03-02T13:44:23;17.83;;;11.43;;
36441;SDS011;73131;50.820;16.274;2024-03-02T13:47:25;14.07;;;9.85;;
36441;SDS011;73131;50.820;16.274;2024-03-02T13:50:26;15.65;;;10.32;;
36441;SDS011;73131;50.820;16.274;2024-03-02T13:53:27;19.50;;;10.98;;
36441;SDS011;73131;50.820;16.274;2024-03-02T13:56:29;16.75;;;10.10;;
36441;SDS011;73131;50.820;16.274;2024-03-02T13:59:30;16.23;;;10.68;;
36441;SDS011;73131;50.820;16.274;2024-03-02T14:02:31;17.45;;;10.85;;
36441;SDS011;73131;50.820;16.274;2024-03-02T14:05:34;16.23;;;10.48;;
36441;SDS011;73131;50.820;16.274;2024-03-02T14:08:38;18.63;;;10.93;;
36441;SDS011;73131;50.820;16.274;2024-03-02T14:11:39;21.20;;;12.50;;
36441;SDS011;73131;50.820;16.274;2024-03-02T14:14:40;19.80;;;11.23;;
36441;SDS011;73131;50.820;16.274;2024-03-02T14:17:44;16.83;;;10.77;;
36441;SDS011;73131;50.820;16.274;2024-03-02T14:20:47;17.27;;;10.35;;
36441;SDS011;73131;50.820;16.274;2024-03-02T14:23:53;18.50;;;11.25;;
36441;SDS011;73131;50.820;16.274;2024-03-02T14:26:54;19.35;;;12.20;;
36441;SDS011;73131;50.820;16.274;2024-03-02T14:30:06;16.38;;;10.65;;
36441;SDS011;73131;50.820;16.274;2024-03-02T14:33:07;21.63;;;13.07;;
36441;SDS011;73131;50.820;16.274;2024-03-02T14:36:16;21.35;;;12.05;;
36441;SDS011;73131;50.820;16.274;2024-03-02T14:39:19;23.77;;;13.45;;
36441;SDS011;73131;50.820;16.274;2024-03-02T14:42:25;20.67;;;12.05;;
36441;SDS011;73131;50.820;16.274;2024-03-02T14:45:31;20.67;;;13.02;;
36441;SDS011;73131;50.820;16.274;2024-03-02T14:48:32;19.35;;;12.48;;
36441;SDS011;73131;50.820;16.274;2024-03-02T14:51:33;19.05;;;11.75;;
36441;SDS011;73131;50.820;16.274;2024-03-02T14:54:34;20.77;;;11.18;;
36441;SDS011;73131;50.820;16.274;2024-03-02T14:57:35;18.30;;;12.57;;
36441;SDS011;73131;50.820;16.274;2024-03-02T15:00:39;20.33;;;13.02;;
36441;SDS011;73131;50.820;16.274;2024-03-02T15:03:40;23.23;;;12.75;;
36441;SDS011;73131;50.820;16.274;2024-03-02T15:06:43;18.80;;;11.45;;
36441;SDS011;73131;50.820;16.274;2024-03-02T15:09:44;17.05;;;11.73;;
36441;SDS011;73131;50.820;16.274;2024-03-02T15:12:46;19.92;;;12.38;;
36441;SDS011;73131;50.820;16.274;2024-03-02T15:15:49;19.42;;;12.20;;
36441;SDS011;73131;50.820;16.274;2024-03-02T15:18:53;19.40;;;11.40;;
36441;SDS011;73131;50.820;16.274;2024-03-02T15:21:54;18.88;;;12.68;;
36441;SDS011;73131;50.820;16.274;2024-03-02T15:25:00;21.63;;;12.60;;
36441;SDS011;73131;50.820;16.274;2024-03-02T15:28:01;18.92;;;12.23;;
36441;SDS011;73131;50.820;16.274;2024-03-02T15:31:02;19.25;;;11.52;;
36441;SDS011;73131;50.820;16.274;2024-03-02T15:34:06;18.27;;;12.52;;
36441;SDS011;73131;50.820;16.274;2024-03-02T15:37:08;15.48;;;11.32;;
36441;SDS011;73131;50.820;16.274;2024-03-02T15:40:12;16.10;;;10.65;;
36441;SDS011;73131;50.820;16.274;2024-03-02T15:43:18;18.73;;;11.77;;
36441;SDS011;73131;50.820;16.274;2024-03-02T15:46:19;18.02;;;10.93;;
36441;SDS011;73131;50.820;16.274;2024-03-02T15:49:22;18.90;;;10.73;;
36441;SDS011;73131;50.820;16.274;2024-03-02T15:52:24;18.00;;;10.20;;
36441;SDS011;73131;50.820;16.274;2024-03-02T15:55:25;20.80;;;11.50;;
36441;SDS011;73131;50.820;16.274;2024-03-02T15:58:26;18.05;;;11.80;;
36441;SDS011;73131;50.820;16.274;2024-03-02T16:01:27;16.95;;;10.50;;
36441;SDS011;73131;50.820;16.274;2024-03-02T16:04:28;18.90;;;11.80;;
36441;SDS011;73131;50.820;16.274;2024-03-02T16:07:29;16.77;;;10.77;;
36441;SDS011;73131;50.820;16.274;2024-03-02T16:10:30;17.98;;;10.68;;
36441;SDS011;73131;50.820;16.274;2024-03-02T16:13:31;17.17;;;10.75;;
36441;SDS011;73131;50.820;16.274;2024-03-02T16:16:32;16.20;;;10.07;;
36441;SDS011;73131;50.820;16.274;2024-03-02T16:19:33;15.85;;;11.23;;
36441;SDS011;73131;50.820;16.274;2024-03-02T16:22:37;16.63;;;9.80;;
36441;SDS011;73131;50.820;16.274;2024-03-02T16:25:40;16.45;;;10.38;;
36441;SDS011;73131;50.820;16.274;2024-03-02T16:28:44;22.23;;;12.55;;
36441;SDS011;73131;50.820;16.274;2024-03-02T16:31:45;23.85;;;12.90;;
36441;SDS011;73131;50.820;16.274;2024-03-02T16:34:46;23.20;;;13.98;;
36441;SDS011;73131;50.820;16.274;2024-03-02T16:37:47;25.00;;;14.30;;
36441;SDS011;73131;50.820;16.274;2024-03-02T16:40:48;27.70;;;14.02;;
36441;SDS011;73131;50.820;16.274;2024-03-02T16:43:49;30.63;;;14.77;;
36441;SDS011;73131;50.820;16.274;2024-03-02T16:46:50;28.23;;;15.02;;
36441;SDS011;73131;50.820;16.274;2024-03-02T16:49:51;26.23;;;14.38;;
36441;SDS011;73131;50.820;16.274;2024-03-02T16:52:52;26.40;;;14.68;;
36441;SDS011;73131;50.820;16.274;2024-03-02T16:55:59;29.90;;;14.48;;
36441;SDS011;73131;50.820;16.274;2024-03-02T16:59:01;26.73;;;14.15;;
36441;SDS011;73131;50.820;16.274;2024-03-02T17:02:04;25.85;;;14.57;;
36441;SDS011;73131;50.820;16.274;2024-03-02T17:05:05;28.02;;;15.68;;
36441;SDS011;73131;50.820;16.274;2024-03-02T17:08:09;21.02;;;12.57;;
36441;SDS011;73131;50.820;16.274;2024-03-02T17:11:10;19.02;;;11.55;;
36441;SDS011;73131;50.820;16.274;2024-03-02T17:14:13;19.58;;;12.02;;
36441;SDS011;73131;50.820;16.274;2024-03-02T17:17:14;18.88;;;11.45;;
36441;SDS011;73131;50.820;16.274;2024-03-02T17:20:18;21.35;;;11.90;;
36441;SDS011;73131;50.820;16.274;2024-03-02T17:23:21;25.77;;;15.43;;
36441;SDS011;73131;50.820;16.274;2024-03-02T17:26:22;36.60;;;20.58;;
36441;SDS011;73131;50.820;16.274;2024-03-02T17:29:26;39.80;;;21.13;;
36441;SDS011;73131;50.820;16.274;2024-03-02T17:32:27;37.47;;;20.05;;
36441;SDS011;73131;50.820;16.274;2024-03-02T17:35:32;33.20;;;18.42;;
36441;SDS011;73131;50.820;16.274;2024-03-02T17:38:35;30.40;;;19.58;;